sensor_id;sensor_type;location;lat;lon;timestamp;P1;durP1;ratioP1;P2;durP2;ratioP2
45356;SDS011;31092;51.924;21.448;2022-08-14T00:02:22;3.40;;;2.75;;
45356;SDS011;31092;51.924;21.448;2022-08-14T00:04:48;3.70;;;3.22;;
45356;SDS011;31092;51.924;21.448;2022-08-14T00:07:13;3.58;;;2.95;;
45356;SDS011;31092;51.924;21.448;2022-08-14T00:09:39;3.40;;;3.10;;
45356;SDS011;31092;51.924;21.448;2022-08-14T00:12:06;3.97;;;3.55;;
45356;SDS011;31092;51.924;21.448;2022-08-14T00:14:31;3.85;;;3.50;;
45356;SDS011;31092;51.924;21.448;2022-08-14T00:16:57;4.30;;;3.42;;
45356;SDS011;31092;51.924;21.448;2022-08-14T00:19:23;3.40;;;2.90;;
45356;SDS011;31092;51.924;21.448;2022-08-14T00:21:49;3.75;;;3.35;;
45356;SDS011;31092;51.924;21.448;2022-08-14T00:24:16;5.90;;;3.47;;
45356;SDS011;31092;51.924;21.448;2022-08-14T00:26:45;3.30;;;3.00;;
45356;SDS011;31092;51.924;21.448;2022-08-14T00:29:14;3.72;;;3.42;;
45356;SDS011;31092;51.924;21.448;2022-08-14T00:31:40;4.80;;;3.40;;
45356;SDS011;31092;51.924;21.448;2022-08-14T00:34:05;3.40;;;3.10;;
45356;SDS011;31092;51.924;21.448;2022-08-14T00:36:31;3.90;;;3.50;;
45356;SDS011;31092;51.924;21.448;2022-08-14T00:38:57;3.97;;;3.58;;
45356;SDS011;31092;51.924;21.448;2022-08-14T00:41:22;3.33;;;3.03;;
45356;SDS011;31092;51.924;21.448;2022-08-14T00:43:53;3.65;;;3.30;;
45356;SDS011;31092;51.924;21.448;2022-08-14T00:46:19;5.30;;;2.95;;
45356;SDS011;31092;51.924;21.448;2022-08-14T00:48:45;4.10;;;3.00;;
45356;SDS011;31092;51.924;21.448;2022-08-14T00:51:12;3.40;;;3.10;;
45356;SDS011;31092;51.924;21.448;2022-08-14T00:53:38;3.30;;;2.78;;
45356;SDS011;31092;51.924;21.448;2022-08-14T00:56:05;4.85;;;3.22;;
45356;SDS011;31092;51.924;21.448;2022-08-14T00:58:32;5.03;;;3.35;;
45356;SDS011;31092;51.924;21.448;2022-08-14T01:01:02;3.90;;;3.50;;
45356;SDS011;31092;51.924;21.448;2022-08-14T01:03:36;3.05;;;2.75;;
45356;SDS011;31092;51.924;21.448;2022-08-14T01:06:06;4.93;;;3.15;;
45356;SDS011;31092;51.924;21.448;2022-08-14T01:08:34;3.15;;;2.95;;
45356;SDS011;31092;51.924;21.448;2022-08-14T01:11:09;3.30;;;3.00;;
45356;SDS011;31092;51.924;21.448;2022-08-14T01:13:41;5.10;;;2.67;;
45356;SDS011;31092;51.924;21.448;2022-08-14T01:16:13;3.42;;;3.10;;
45356;SDS011;31092;51.924;21.448;2022-08-14T01:18:40;3.60;;;3.30;;
45356;SDS011;31092;51.924;21.448;2022-08-14T01:21:39;3.88;;;2.97;;
45356;SDS011;31092;51.924;21.448;2022-08-14T01:24:05;3.80;;;3.00;;
45356;SDS011;31092;51.924;21.448;2022-08-14T01:26:32;4.55;;;3.55;;
45356;SDS011;31092;51.924;21.448;2022-08-14T01:28:59;5.32;;;3.75;;
45356;SDS011;31092;51.924;21.448;2022-08-14T01:31:27;5.35;;;4.30;;
45356;SDS011;31092;51.924;21.448;2022-08-14T01:34:18;3.50;;;3.15;;
45356;SDS011;31092;51.924;21.448;2022-08-14T01:36:50;3.67;;;3.38;;
45356;SDS011;31092;51.924;21.448;2022-08-14T01:40:03;5.00;;;4.13;;
45356;SDS011;31092;51.924;21.448;2022-08-14T01:42:13;4.55;;;4.07;;
45356;SDS011;31092;51.924;21.448;2022-08-14T01:44:38;4.80;;;3.80;;
45356;SDS011;31092;51.924;21.448;2022-08-14T01:47:06;4.82;;;3.60;;
45356;SDS011;31092;51.924;21.448;2022-08-14T01:49:38;5.60;;;3.80;;
45356;SDS011;31092;51.924;21.448;2022-08-14T01:52:04;4.43;;;3.70;;
45356;SDS011;31092;51.924;21.448;2022-08-14T01:54:33;3.55;;;3.25;;
45356;SDS011;31092;51.924;21.448;2022-08-14T01:56:59;3.70;;;3.40;;
45356;SDS011;31092;51.924;21.448;2022-08-14T01:59:30;4.03;;;3.60;;
45356;SDS011;31092;51.924;21.448;2022-08-14T02:01:57;5.20;;;4.07;;
45356;SDS011;31092;51.924;21.448;2022-08-14T02:04:33;3.22;;;2.67;;
45356;SDS011;31092;51.924;21.448;2022-08-14T02:07:00;4.20;;;3.38;;
45356;SDS011;31092;51.924;21.448;2022-08-14T02:09:28;5.05;;;3.78;;
45356;SDS011;31092;51.924;21.448;2022-08-14T02:12:02;4.10;;;3.58;;
45356;SDS011;31092;51.924;21.448;2022-08-14T02:14:29;4.40;;;3.40;;
45356;SDS011;31092;51.924;21.448;2022-08-14T02:16:55;3.60;;;3.22;;
45356;SDS011;31092;51.924;21.448;2022-08-14T02:19:22;4.35;;;3.42;;
45356;SDS011;31092;51.924;21.448;2022-08-14T02:21:55;7.57;;;2.85;;
45356;SDS011;31092;51.924;21.448;2022-08-14T02:24:23;3.28;;;2.95;;
45356;SDS011;31092;51.924;21.448;2022-08-14T02:26:53;4.78;;;3.67;;
45356;SDS011;31092;51.924;21.448;2022-08-14T02:29:19;3.40;;;2.92;;
45356;SDS011;31092;51.924;21.448;2022-08-14T02:31:48;4.45;;;3.40;;
45356;SDS011;31092;51.924;21.448;2022-08-14T02:34:19;5.32;;;3.25;;
45356;SDS011;31092;51.924;21.448;2022-08-14T02:36:54;4.45;;;3.33;;
45356;SDS011;31092;51.924;21.448;2022-08-14T02:41:49;4.13;;;3.72;;
45356;SDS011;31092;51.924;21.448;2022-08-14T02:44:16;4.22;;;3.67;;
45356;SDS011;31092;51.924;21.448;2022-08-14T02:46:47;4.25;;;3.25;;
45356;SDS011;31092;51.924;21.448;2022-08-14T02:49:14;4.15;;;3.78;;
45356;SDS011;31092;51.924;21.448;2022-08-14T02:51:40;4.70;;;3.42;;
45356;SDS011;31092;51.924;21.448;2022-08-14T02:54:06;4.40;;;3.38;;
45356;SDS011;31092;51.924;21.448;2022-08-14T02:56:34;4.85;;;4.32;;
45356;SDS011;31092;51.924;21.448;2022-08-14T02:59:02;4.57;;;4.05;;
45356;SDS011;31092;51.924;21.448;2022-08-14T03:01:31;4.38;;;3.97;;
45356;SDS011;31092;51.924;21.448;2022-08-14T03:03:58;5.70;;;3.75;;
45356;SDS011;31092;51.924;21.448;2022-08-14T03:06:24;3.38;;;3.08;;
45356;SDS011;31092;51.924;21.448;2022-08-14T03:08:53;3.63;;;3.33;;
45356;SDS011;31092;51.924;21.448;2022-08-14T03:11:19;4.95;;;3.83;;
45356;SDS011;31092;51.924;21.448;2022-08-14T03:13:46;3.80;;;3.50;;
45356;SDS011;31092;51.924;21.448;2022-08-14T03:16:16;4.20;;;3.80;;
45356;SDS011;31092;51.924;21.448;2022-08-14T03:18:45;5.43;;;3.80;;
45356;SDS011;31092;51.924;21.448;2022-08-14T03:21:16;5.45;;;4.10;;
45356;SDS011;31092;51.924;21.448;2022-08-14T03:23:44;5.43;;;4.43;;
45356;SDS011;31092;51.924;21.448;2022-08-14T03:26:13;4.30;;;3.88;;
45356;SDS011;31092;51.924;21.448;2022-08-14T03:28:42;4.18;;;3.78;;
45356;SDS011;31092;51.924;21.448;2022-08-14T03:31:09;4.60;;;4.13;;
45356;SDS011;31092;51.924;21.448;2022-08-14T03:33:35;5.57;;;3.70;;
45356;SDS011;31092;51.924;21.448;2022-08-14T03:36:05;4.55;;;4.15;;
45356;SDS011;31092;51.924;21.448;2022-08-14T03:38:43;5.47;;;4.38;;
45356;SDS011;31092;51.924;21.448;2022-08-14T03:41:17;5.45;;;4.13;;
45356;SDS011;31092;51.924;21.448;2022-08-14T03:44:04;4.95;;;4.03;;
45356;SDS011;31092;51.924;21.448;2022-08-14T03:46:32;6.32;;;4.85;;
45356;SDS011;31092;51.924;21.448;2022-08-14T03:49:02;4.68;;;4.07;;
45356;SDS011;31092;51.924;21.448;2022-08-14T03:51:29;7.00;;;4.75;;
45356;SDS011;31092;51.924;21.448;2022-08-14T03:53:55;4.82;;;4.25;;
45356;SDS011;31092;51.924;21.448;2022-08-14T03:56:22;4.65;;;4.22;;
45356;SDS011;31092;51.924;21.448;2022-08-14T03:59:00;5.97;;;4.32;;
45356;SDS011;31092;51.924;21.448;2022-08-14T04:01:38;6.88;;;4.18;;
45356;SDS011;31092;51.924;21.448;2022-08-14T04:04:05;5.40;;;4.57;;
45356;SDS011;31092;51.924;21.448;2022-08-14T04:06:32;5.47;;;4.53;;
45356;SDS011;31092;51.924;21.448;2022-08-14T04:08:59;5.72;;;4.93;;
45356;SDS011;31092;51.924;21.448;2022-08-14T04:11:25;7.28;;;4.78;;
45356;SDS011;31092;51.924;21.448;2022-08-14T04:13:50;5.32;;;4.30;;
45356;SDS011;31092;51.924;21.448;2022-08-14T04:16:18;6.57;;;4.55;;
45356;SDS011;31092;51.924;21.448;2022-08-14T04:18:47;9.52;;;5.43;;
45356;SDS011;31092;51.924;21.448;2022-08-14T04:21:18;5.38;;;4.72;;
45356;SDS011;31092;51.924;21.448;2022-08-14T04:23:50;6.67;;;4.47;;
45356;SDS011;31092;51.924;21.448;2022-08-14T04:26:16;8.02;;;5.57;;
45356;SDS011;31092;51.924;21.448;2022-08-14T04:28:44;6.93;;;5.07;;
45356;SDS011;31092;51.924;21.448;2022-08-14T04:31:10;6.60;;;4.55;;
45356;SDS011;31092;51.924;21.448;2022-08-14T04:33:36;4.97;;;4.47;;
45356;SDS011;31092;51.924;21.448;2022-08-14T04:36:02;6.45;;;4.90;;
45356;SDS011;31092;51.924;21.448;2022-08-14T04:38:28;5.47;;;4.90;;
45356;SDS011;31092;51.924;21.448;2022-08-14T04:41:12;6.20;;;4.82;;
45356;SDS011;31092;51.924;21.448;2022-08-14T04:43:57;6.00;;;5.38;;
45356;SDS011;31092;51.924;21.448;2022-08-14T04:46:23;6.07;;;5.07;;
45356;SDS011;31092;51.924;21.448;2022-08-14T04:48:49;5.55;;;4.70;;
45356;SDS011;31092;51.924;21.448;2022-08-14T04:51:16;6.80;;;5.43;;
45356;SDS011;31092;51.924;21.448;2022-08-14T04:53:47;8.77;;;5.50;;
45356;SDS011;31092;51.924;21.448;2022-08-14T04:56:15;6.20;;;4.47;;
45356;SDS011;31092;51.924;21.448;2022-08-14T04:58:42;8.82;;;5.82;;
45356;SDS011;31092;51.924;21.448;2022-08-14T05:01:08;5.80;;;4.75;;
45356;SDS011;31092;51.924;21.448;2022-08-14T05:03:36;5.57;;;4.53;;
45356;SDS011;31092;51.924;21.448;2022-08-14T05:06:07;7.65;;;4.75;;
45356;SDS011;31092;51.924;21.448;2022-08-14T05:08:35;6.25;;;5.05;;
45356;SDS011;31092;51.924;21.448;2022-08-14T05:11:02;5.90;;;4.75;;
45356;SDS011;31092;51.924;21.448;2022-08-14T05:13:30;6.05;;;5.15;;
45356;SDS011;31092;51.924;21.448;2022-08-14T05:15:58;8.25;;;5.38;;
45356;SDS011;31092;51.924;21.448;2022-08-14T05:18:26;5.25;;;4.57;;
45356;SDS011;31092;51.924;21.448;2022-08-14T05:20:56;7.65;;;5.57;;
45356;SDS011;31092;51.924;21.448;2022-08-14T05:23:24;8.68;;;5.93;;
45356;SDS011;31092;51.924;21.448;2022-08-14T05:25:52;6.72;;;5.43;;
45356;SDS011;31092;51.924;21.448;2022-08-14T05:28:20;6.57;;;5.25;;
45356;SDS011;31092;51.924;21.448;2022-08-14T05:30:51;8.50;;;5.18;;
45356;SDS011;31092;51.924;21.448;2022-08-14T05:35:45;6.75;;;5.65;;
45356;SDS011;31092;51.924;21.448;2022-08-14T05:38:12;9.60;;;6.28;;
45356;SDS011;31092;51.924;21.448;2022-08-14T05:40:43;7.70;;;5.88;;
45356;SDS011;31092;51.924;21.448;2022-08-14T05:43:09;7.05;;;5.57;;
45356;SDS011;31092;51.924;21.448;2022-08-14T05:45:38;9.95;;;6.75;;
45356;SDS011;31092;51.924;21.448;2022-08-14T05:48:05;8.60;;;6.38;;
45356;SDS011;31092;51.924;21.448;2022-08-14T05:50:31;8.05;;;5.32;;
45356;SDS011;31092;51.924;21.448;2022-08-14T05:52:59;7.63;;;6.07;;
45356;SDS011;31092;51.924;21.448;2022-08-14T05:55:25;6.78;;;5.82;;
45356;SDS011;31092;51.924;21.448;2022-08-14T05:57:54;12.43;;;6.50;;
45356;SDS011;31092;51.924;21.448;2022-08-14T06:00:22;7.82;;;6.85;;
45356;SDS011;31092;51.924;21.448;2022-08-14T06:02:56;9.43;;;6.18;;
45356;SDS011;31092;51.924;21.448;2022-08-14T06:05:23;8.77;;;6.67;;
45356;SDS011;31092;51.924;21.448;2022-08-14T06:07:49;8.25;;;6.82;;
45356;SDS011;31092;51.924;21.448;2022-08-14T06:10:24;9.25;;;6.32;;
45356;SDS011;31092;51.924;21.448;2022-08-14T06:12:52;9.40;;;5.35;;
45356;SDS011;31092;51.924;21.448;2022-08-14T06:15:18;7.45;;;5.75;;
45356;SDS011;31092;51.924;21.448;2022-08-14T06:17:47;8.50;;;6.22;;
45356;SDS011;31092;51.924;21.448;2022-08-14T06:20:18;11.95;;;6.78;;
45356;SDS011;31092;51.924;21.448;2022-08-14T06:22:45;10.98;;;6.53;;
45356;SDS011;31092;51.924;21.448;2022-08-14T06:25:12;7.45;;;6.15;;
45356;SDS011;31092;51.924;21.448;2022-08-14T06:27:42;8.77;;;6.07;;
45356;SDS011;31092;51.924;21.448;2022-08-14T06:30:11;7.60;;;6.35;;
45356;SDS011;31092;51.924;21.448;2022-08-14T06:32:39;8.40;;;6.15;;
45356;SDS011;31092;51.924;21.448;2022-08-14T06:35:05;5.80;;;5.22;;
45356;SDS011;31092;51.924;21.448;2022-08-14T06:37:51;11.35;;;6.68;;
45356;SDS011;31092;51.924;21.448;2022-08-14T06:40:28;10.00;;;7.00;;
45356;SDS011;31092;51.924;21.448;2022-08-14T06:43:02;9.25;;;6.25;;
45356;SDS011;31092;51.924;21.448;2022-08-14T06:45:30;9.05;;;6.80;;
45356;SDS011;31092;51.924;21.448;2022-08-14T06:47:59;7.07;;;5.72;;
45356;SDS011;31092;51.924;21.448;2022-08-14T06:50:25;8.45;;;6.65;;
45356;SDS011;31092;51.924;21.448;2022-08-14T06:52:52;7.25;;;6.32;;
45356;SDS011;31092;51.924;21.448;2022-08-14T06:55:18;9.05;;;6.13;;
45356;SDS011;31092;51.924;21.448;2022-08-14T06:57:46;8.13;;;6.25;;
45356;SDS011;31092;51.924;21.448;2022-08-14T07:00:21;9.88;;;7.05;;
45356;SDS011;31092;51.924;21.448;2022-08-14T07:02:51;6.25;;;5.20;;
45356;SDS011;31092;51.924;21.448;2022-08-14T07:05:36;9.30;;;6.28;;
45356;SDS011;31092;51.924;21.448;2022-08-14T07:13:22;10.27;;;6.72;;
45356;SDS011;31092;51.924;21.448;2022-08-14T07:15:49;7.40;;;6.15;;
45356;SDS011;31092;51.924;21.448;2022-08-14T07:18:24;9.02;;;5.55;;
45356;SDS011;31092;51.924;21.448;2022-08-14T07:20:51;8.07;;;6.20;;
45356;SDS011;31092;51.924;21.448;2022-08-14T07:23:18;7.20;;;5.57;;
45356;SDS011;31092;51.924;21.448;2022-08-14T07:25:56;9.95;;;6.60;;
45356;SDS011;31092;51.924;21.448;2022-08-14T07:28:31;11.07;;;6.57;;
45356;SDS011;31092;51.924;21.448;2022-08-14T07:31:03;11.18;;;6.97;;
45356;SDS011;31092;51.924;21.448;2022-08-14T07:33:32;9.30;;;6.53;;
45356;SDS011;31092;51.924;21.448;2022-08-14T07:36:03;9.13;;;6.47;;
45356;SDS011;31092;51.924;21.448;2022-08-14T07:38:31;10.82;;;6.85;;
45356;SDS011;31092;51.924;21.448;2022-08-14T07:41:01;8.93;;;6.43;;
45356;SDS011;31092;51.924;21.448;2022-08-14T07:43:27;8.63;;;6.43;;
45356;SDS011;31092;51.924;21.448;2022-08-14T07:45:53;7.82;;;6.03;;
45356;SDS011;31092;51.924;21.448;2022-08-14T07:48:19;9.27;;;6.38;;
45356;SDS011;31092;51.924;21.448;2022-08-14T07:50:45;8.45;;;6.30;;
45356;SDS011;31092;51.924;21.448;2022-08-14T07:53:14;7.53;;;5.90;;
45356;SDS011;31092;51.924;21.448;2022-08-14T07:55:41;8.03;;;5.90;;
45356;SDS011;31092;51.924;21.448;2022-08-14T07:58:07;7.88;;;6.28;;
45356;SDS011;31092;51.924;21.448;2022-08-14T08:00:34;7.55;;;5.60;;
45356;SDS011;31092;51.924;21.448;2022-08-14T08:03:00;6.20;;;5.47;;
45356;SDS011;31092;51.924;21.448;2022-08-14T08:05:33;8.60;;;5.68;;
45356;SDS011;31092;51.924;21.448;2022-08-14T08:07:59;7.13;;;5.95;;
45356;SDS011;31092;51.924;21.448;2022-08-14T08:10:26;6.35;;;5.43;;
45356;SDS011;31092;51.924;21.448;2022-08-14T08:15:41;5.63;;;4.80;;
45356;SDS011;31092;51.924;21.448;2022-08-14T08:18:11;6.60;;;5.70;;
45356;SDS011;31092;51.924;21.448;2022-08-14T08:20:43;8.25;;;6.05;;
45356;SDS011;31092;51.924;21.448;2022-08-14T08:23:14;7.40;;;5.80;;
45356;SDS011;31092;51.924;21.448;2022-08-14T08:25:42;5.72;;;4.60;;
45356;SDS011;31092;51.924;21.448;2022-08-14T08:28:09;7.20;;;5.20;;
45356;SDS011;31092;51.924;21.448;2022-08-14T08:30:40;7.93;;;5.63;;
45356;SDS011;31092;51.924;21.448;2022-08-14T08:33:13;8.15;;;5.80;;
45356;SDS011;31092;51.924;21.448;2022-08-14T08:35:41;5.95;;;5.00;;
45356;SDS011;31092;51.924;21.448;2022-08-14T08:38:11;6.47;;;5.43;;
45356;SDS011;31092;51.924;21.448;2022-08-14T08:40:40;6.90;;;5.85;;
45356;SDS011;31092;51.924;21.448;2022-08-14T08:43:15;5.75;;;5.00;;
45356;SDS011;31092;51.924;21.448;2022-08-14T08:49:02;6.03;;;5.28;;
45356;SDS011;31092;51.924;21.448;2022-08-14T08:51:28;7.63;;;5.03;;
45356;SDS011;31092;51.924;21.448;2022-08-14T08:53:58;7.97;;;5.47;;
45356;SDS011;31092;51.924;21.448;2022-08-14T08:56:42;8.25;;;5.40;;
45356;SDS011;31092;51.924;21.448;2022-08-14T09:01:48;7.53;;;5.53;;
45356;SDS011;31092;51.924;21.448;2022-08-14T09:04:18;6.53;;;4.93;;
45356;SDS011;31092;51.924;21.448;2022-08-14T09:06:47;8.65;;;5.32;;
45356;SDS011;31092;51.924;21.448;2022-08-14T09:09:22;6.80;;;4.53;;
45356;SDS011;31092;51.924;21.448;2022-08-14T09:11:51;7.32;;;4.82;;
45356;SDS011;31092;51.924;21.448;2022-08-14T09:14:23;5.65;;;5.00;;
45356;SDS011;31092;51.924;21.448;2022-08-14T09:16:51;8.27;;;4.75;;
45356;SDS011;31092;51.924;21.448;2022-08-14T09:19:17;6.07;;;4.90;;
45356;SDS011;31092;51.924;21.448;2022-08-14T09:21:44;4.28;;;3.90;;
45356;SDS011;31092;51.924;21.448;2022-08-14T09:24:10;7.25;;;5.32;;
45356;SDS011;31092;51.924;21.448;2022-08-14T09:26:36;5.97;;;5.35;;
45356;SDS011;31092;51.924;21.448;2022-08-14T09:29:03;5.82;;;5.32;;
45356;SDS011;31092;51.924;21.448;2022-08-14T09:31:29;6.25;;;4.50;;
45356;SDS011;31092;51.924;21.448;2022-08-14T09:34:00;6.50;;;5.38;;
45356;SDS011;31092;51.924;21.448;2022-08-14T09:42:22;5.25;;;4.68;;
45356;SDS011;31092;51.924;21.448;2022-08-14T09:45:11;6.97;;;4.75;;
45356;SDS011;31092;51.924;21.448;2022-08-14T09:50:28;7.00;;;5.53;;
45356;SDS011;31092;51.924;21.448;2022-08-14T09:52:58;6.57;;;5.07;;
45356;SDS011;31092;51.924;21.448;2022-08-14T09:55:29;5.82;;;4.95;;
45356;SDS011;31092;51.924;21.448;2022-08-14T09:58:10;5.07;;;4.55;;
45356;SDS011;31092;51.924;21.448;2022-08-14T10:00:47;6.25;;;5.10;;
45356;SDS011;31092;51.924;21.448;2022-08-14T10:03:26;6.68;;;5.32;;
45356;SDS011;31092;51.924;21.448;2022-08-14T10:11:27;5.43;;;4.82;;
45356;SDS011;31092;51.924;21.448;2022-08-14T10:13:58;7.97;;;5.85;;
45356;SDS011;31092;51.924;21.448;2022-08-14T10:16:40;8.13;;;5.82;;
45356;SDS011;31092;51.924;21.448;2022-08-14T10:19:08;6.22;;;4.88;;
45356;SDS011;31092;51.924;21.448;2022-08-14T10:21:40;5.60;;;5.03;;
45356;SDS011;31092;51.924;21.448;2022-08-14T10:24:21;5.45;;;4.75;;
45356;SDS011;31092;51.924;21.448;2022-08-14T10:26:54;6.30;;;5.10;;
45356;SDS011;31092;51.924;21.448;2022-08-14T10:29:36;6.22;;;5.25;;
45356;SDS011;31092;51.924;21.448;2022-08-14T10:32:05;5.25;;;4.75;;
45356;SDS011;31092;51.924;21.448;2022-08-14T10:34:33;5.95;;;5.35;;
45356;SDS011;31092;51.924;21.448;2022-08-14T10:37:03;5.63;;;4.75;;
45356;SDS011;31092;51.924;21.448;2022-08-14T10:39:35;6.65;;;5.18;;
45356;SDS011;31092;51.924;21.448;2022-08-14T10:42:06;5.15;;;4.65;;
45356;SDS011;31092;51.924;21.448;2022-08-14T10:44:35;6.78;;;5.55;;
45356;SDS011;31092;51.924;21.448;2022-08-14T10:47:10;5.10;;;4.60;;
45356;SDS011;31092;51.924;21.448;2022-08-14T10:49:38;5.90;;;5.13;;
45356;SDS011;31092;51.924;21.448;2022-08-14T10:52:21;5.72;;;5.13;;
45356;SDS011;31092;51.924;21.448;2022-08-14T10:54:48;5.72;;;5.18;;
45356;SDS011;31092;51.924;21.448;2022-08-14T10:57:19;7.20;;;5.30;;
45356;SDS011;31092;51.924;21.448;2022-08-14T10:59:53;6.68;;;5.22;;
45356;SDS011;31092;51.924;21.448;2022-08-14T11:02:25;6.88;;;5.05;;
45356;SDS011;31092;51.924;21.448;2022-08-14T11:05:00;5.72;;;5.22;;
45356;SDS011;31092;51.924;21.448;2022-08-14T11:07:29;6.40;;;5.38;;
45356;SDS011;31092;51.924;21.448;2022-08-14T11:09:56;6.25;;;5.40;;
45356;SDS011;31092;51.924;21.448;2022-08-14T11:12:38;6.03;;;5.28;;
45356;SDS011;31092;51.924;21.448;2022-08-14T11:15:16;5.80;;;5.20;;
45356;SDS011;31092;51.924;21.448;2022-08-14T11:17:44;4.85;;;4.45;;
45356;SDS011;31092;51.924;21.448;2022-08-14T11:20:11;6.57;;;5.95;;
45356;SDS011;31092;51.924;21.448;2022-08-14T11:22:38;6.47;;;5.40;;
45356;SDS011;31092;51.924;21.448;2022-08-14T11:25:05;6.78;;;5.20;;
45356;SDS011;31092;51.924;21.448;2022-08-14T11:27:33;6.45;;;5.72;;
45356;SDS011;31092;51.924;21.448;2022-08-14T11:30:04;6.72;;;4.88;;
45356;SDS011;31092;51.924;21.448;2022-08-14T11:32:31;5.90;;;5.30;;
45356;SDS011;31092;51.924;21.448;2022-08-14T11:34:58;5.65;;;5.15;;
45356;SDS011;31092;51.924;21.448;2022-08-14T11:37:27;6.72;;;5.93;;
45356;SDS011;31092;51.924;21.448;2022-08-14T11:39:54;4.90;;;4.45;;
45356;SDS011;31092;51.924;21.448;2022-08-14T11:42:20;7.40;;;5.88;;
45356;SDS011;31092;51.924;21.448;2022-08-14T11:44:48;6.95;;;6.25;;
45356;SDS011;31092;51.924;21.448;2022-08-14T11:47:15;5.97;;;5.38;;
45356;SDS011;31092;51.924;21.448;2022-08-14T11:49:44;5.35;;;4.85;;
45356;SDS011;31092;51.924;21.448;2022-08-14T11:52:11;6.75;;;5.85;;
45356;SDS011;31092;51.924;21.448;2022-08-14T11:54:41;5.78;;;5.22;;
45356;SDS011;31092;51.924;21.448;2022-08-14T11:57:13;7.13;;;4.95;;
45356;SDS011;31092;51.924;21.448;2022-08-14T11:59:42;6.45;;;5.85;;
45356;SDS011;31092;51.924;21.448;2022-08-14T12:02:11;5.70;;;5.10;;
45356;SDS011;31092;51.924;21.448;2022-08-14T12:04:51;6.47;;;5.47;;
45356;SDS011;31092;51.924;21.448;2022-08-14T12:07:17;8.68;;;5.85;;
45356;SDS011;31092;51.924;21.448;2022-08-14T12:09:44;7.30;;;5.60;;
45356;SDS011;31092;51.924;21.448;2022-08-14T12:12:21;6.43;;;5.32;;
45356;SDS011;31092;51.924;21.448;2022-08-14T12:14:54;10.82;;;5.95;;
45356;SDS011;31092;51.924;21.448;2022-08-14T12:17:42;6.95;;;5.90;;
45356;SDS011;31092;51.924;21.448;2022-08-14T12:20:10;6.03;;;5.43;;
45356;SDS011;31092;51.924;21.448;2022-08-14T12:22:37;5.03;;;4.55;;
45356;SDS011;31092;51.924;21.448;2022-08-14T12:25:04;6.13;;;5.50;;
45356;SDS011;31092;51.924;21.448;2022-08-14T12:27:35;5.78;;;4.95;;
45356;SDS011;31092;51.924;21.448;2022-08-14T12:30:06;5.80;;;5.20;;
45356;SDS011;31092;51.924;21.448;2022-08-14T12:32:40;8.93;;;6.00;;
45356;SDS011;31092;51.924;21.448;2022-08-14T12:35:11;6.88;;;5.07;;
45356;SDS011;31092;51.924;21.448;2022-08-14T12:37:45;6.15;;;5.55;;
45356;SDS011;31092;51.924;21.448;2022-08-14T12:40:12;7.82;;;5.50;;
45356;SDS011;31092;51.924;21.448;2022-08-14T12:42:40;7.10;;;5.72;;
45356;SDS011;31092;51.924;21.448;2022-08-14T12:45:06;8.55;;;5.57;;
45356;SDS011;31092;51.924;21.448;2022-08-14T12:47:32;5.90;;;5.13;;
45356;SDS011;31092;51.924;21.448;2022-08-14T12:49:58;5.43;;;4.93;;
45356;SDS011;31092;51.924;21.448;2022-08-14T12:54:57;5.80;;;4.85;;
45356;SDS011;31092;51.924;21.448;2022-08-14T12:57:34;6.32;;;5.10;;
45356;SDS011;31092;51.924;21.448;2022-08-14T13:00:13;5.55;;;4.55;;
45356;SDS011;31092;51.924;21.448;2022-08-14T13:02:45;6.35;;;5.68;;
45356;SDS011;31092;51.924;21.448;2022-08-14T13:05:15;5.53;;;4.97;;
45356;SDS011;31092;51.924;21.448;2022-08-14T13:07:41;6.15;;;5.40;;
45356;SDS011;31092;51.924;21.448;2022-08-14T13:10:12;6.47;;;5.82;;
45356;SDS011;31092;51.924;21.448;2022-08-14T13:12:39;5.68;;;4.85;;
45356;SDS011;31092;51.924;21.448;2022-08-14T13:15:07;8.30;;;5.03;;
45356;SDS011;31092;51.924;21.448;2022-08-14T13:17:41;5.60;;;5.00;;
45356;SDS011;31092;51.924;21.448;2022-08-14T13:20:09;5.50;;;5.00;;
45356;SDS011;31092;51.924;21.448;2022-08-14T13:22:38;5.57;;;5.00;;
45356;SDS011;31092;51.924;21.448;2022-08-14T13:25:06;5.32;;;4.93;;
45356;SDS011;31092;51.924;21.448;2022-08-14T13:27:33;6.93;;;4.82;;
45356;SDS011;31092;51.924;21.448;2022-08-14T13:30:01;6.28;;;4.97;;
45356;SDS011;31092;51.924;21.448;2022-08-14T13:32:29;7.05;;;5.57;;
45356;SDS011;31092;51.924;21.448;2022-08-14T13:34:57;6.32;;;5.57;;
45356;SDS011;31092;51.924;21.448;2022-08-14T13:37:24;5.55;;;5.05;;
45356;SDS011;31092;51.924;21.448;2022-08-14T13:39:51;5.35;;;4.82;;
45356;SDS011;31092;51.924;21.448;2022-08-14T13:42:18;6.43;;;5.38;;
45356;SDS011;31092;51.924;21.448;2022-08-14T13:44:51;4.82;;;4.35;;
45356;SDS011;31092;51.924;21.448;2022-08-14T13:47:22;6.10;;;4.82;;
45356;SDS011;31092;51.924;21.448;2022-08-14T13:49:54;8.15;;;5.13;;
45356;SDS011;31092;51.924;21.448;2022-08-14T13:52:21;5.80;;;5.07;;
45356;SDS011;31092;51.924;21.448;2022-08-14T13:54:49;6.18;;;5.30;;
45356;SDS011;31092;51.924;21.448;2022-08-14T13:57:18;4.95;;;4.55;;
45356;SDS011;31092;51.924;21.448;2022-08-14T13:59:48;5.78;;;5.10;;
45356;SDS011;31092;51.924;21.448;2022-08-14T14:02:15;5.40;;;4.90;;
45356;SDS011;31092;51.924;21.448;2022-08-14T14:04:46;5.97;;;5.07;;
45356;SDS011;31092;51.924;21.448;2022-08-14T14:07:17;5.68;;;5.05;;
45356;SDS011;31092;51.924;21.448;2022-08-14T14:09:46;5.15;;;4.70;;
45356;SDS011;31092;51.924;21.448;2022-08-14T14:12:13;6.07;;;5.47;;
45356;SDS011;31092;51.924;21.448;2022-08-14T14:14:40;5.20;;;4.70;;
45356;SDS011;31092;51.924;21.448;2022-08-14T14:17:07;5.35;;;4.80;;
45356;SDS011;31092;51.924;21.448;2022-08-14T14:19:42;6.82;;;5.80;;
45356;SDS011;31092;51.924;21.448;2022-08-14T14:22:12;5.82;;;5.22;;
45356;SDS011;31092;51.924;21.448;2022-08-14T14:27:07;8.70;;;5.63;;
45356;SDS011;31092;51.924;21.448;2022-08-14T14:29:33;7.40;;;5.88;;
45356;SDS011;31092;51.924;21.448;2022-08-14T14:32:00;7.03;;;5.25;;
45356;SDS011;31092;51.924;21.448;2022-08-14T14:34:27;5.47;;;4.90;;
45356;SDS011;31092;51.924;21.448;2022-08-14T14:36:54;7.55;;;6.22;;
45356;SDS011;31092;51.924;21.448;2022-08-14T14:39:24;6.32;;;5.72;;
45356;SDS011;31092;51.924;21.448;2022-08-14T14:41:53;6.05;;;5.45;;
45356;SDS011;31092;51.924;21.448;2022-08-14T14:44:22;9.32;;;5.78;;
45356;SDS011;31092;51.924;21.448;2022-08-14T14:46:50;6.97;;;6.10;;
45356;SDS011;31092;51.924;21.448;2022-08-14T14:49:16;5.68;;;4.68;;
45356;SDS011;31092;51.924;21.448;2022-08-14T14:51:44;6.07;;;5.53;;
45356;SDS011;31092;51.924;21.448;2022-08-14T14:54:11;5.70;;;5.07;;
45356;SDS011;31092;51.924;21.448;2022-08-14T14:56:40;5.97;;;5.28;;
45356;SDS011;31092;51.924;21.448;2022-08-14T14:59:06;6.55;;;5.88;;
45356;SDS011;31092;51.924;21.448;2022-08-14T15:01:36;5.90;;;5.30;;
45356;SDS011;31092;51.924;21.448;2022-08-14T15:04:02;6.85;;;6.15;;
45356;SDS011;31092;51.924;21.448;2022-08-14T15:06:30;6.38;;;5.50;;
45356;SDS011;31092;51.924;21.448;2022-08-14T15:08:56;6.35;;;5.75;;
45356;SDS011;31092;51.924;21.448;2022-08-14T15:11:22;6.40;;;5.40;;
45356;SDS011;31092;51.924;21.448;2022-08-14T15:13:50;6.85;;;6.15;;
45356;SDS011;31092;51.924;21.448;2022-08-14T15:16:15;6.25;;;5.65;;
45356;SDS011;31092;51.924;21.448;2022-08-14T15:18:41;7.78;;;5.85;;
45356;SDS011;31092;51.924;21.448;2022-08-14T15:21:09;6.95;;;6.22;;
45356;SDS011;31092;51.924;21.448;2022-08-14T15:23:35;6.00;;;5.40;;
45356;SDS011;31092;51.924;21.448;2022-08-14T15:26:01;6.70;;;6.00;;